sensor_id;sensor_type;location;lat;lon;timestamp;temperature;humidity
55719;DHT22;41623;46.104;19.656;2022-07-06T00:01:34;717.00;1305.60
55719;DHT22;41623;46.104;19.656;2022-07-06T00:04:01;716.80;1331.20
55719;DHT22;41623;46.104;19.656;2022-07-06T00:06:27;716.80;1331.20
55719;DHT22;41623;46.104;19.656;2022-07-06T00:08:53;692.10;1305.60
55719;DHT22;41623;46.104;19.656;2022-07-06T00:11:19;692.10;1305.60
55719;DHT22;41623;46.104;19.656;2022-07-06T00:13:45;692.10;1305.60
55719;DHT22;41623;46.104;19.656;2022-07-06T00:16:11;692.10;1305.60
55719;DHT22;41623;46.104;19.656;2022-07-06T00:18:37;716.80;1331.20
55719;DHT22;41623;46.104;19.656;2022-07-06T00:21:02;716.80;1331.20
55719;DHT22;41623;46.104;19.656;2022-07-06T00:23:28;716.80;1331.20
55719;DHT22;41623;46.104;19.656;2022-07-06T00:25:54;716.80;1331.20
55719;DHT22;41623;46.104;19.656;2022-07-06T00:28:20;716.80;1331.20
55719;DHT22;41623;46.104;19.656;2022-07-06T00:30:45;716.80;1305.60
55719;DHT22;41623;46.104;19.656;2022-07-06T00:33:11;692.10;1305.60
55719;DHT22;41623;46.104;19.656;2022-07-06T00:35:37;692.10;1305.60
55719;DHT22;41623;46.104;19.656;2022-07-06T00:38:03;716.80;1305.60
55719;DHT22;41623;46.104;19.656;2022-07-06T00:40:28;716.80;1331.20
55719;DHT22;41623;46.104;19.656;2022-07-06T00:42:55;716.80;1331.20
55719;DHT22;41623;46.104;19.656;2022-07-06T00:45:21;716.80;1331.20
55719;DHT22;41623;46.104;19.656;2022-07-06T00:47:47;716.80;1331.20
55719;DHT22;41623;46.104;19.656;2022-07-06T00:50:15;716.80;1331.20
55719;DHT22;41623;46.104;19.656;2022-07-06T00:52:42;716.80;1331.20
55719;DHT22;41623;46.104;19.656;2022-07-06T00:55:09;692.10;1280.00
55719;DHT22;41623;46.104;19.656;2022-07-06T00:57:35;692.10;1305.60
55719;DHT22;41623;46.104;19.656;2022-07-06T01:00:06;692.10;1305.60
55719;DHT22;41623;46.104;19.656;2022-07-06T01:02:33;692.00;1331.20
55719;DHT22;41623;46.104;19.656;2022-07-06T01:04:59;691.90;1331.20
55719;DHT22;41623;46.104;19.656;2022-07-06T01:07:25;691.90;1331.20
55719;DHT22;41623;46.104;19.656;2022-07-06T01:09:51;691.90;1356.80
55719;DHT22;41623;46.104;19.656;2022-07-06T01:12:17;691.80;1356.80
55719;DHT22;41623;46.104;19.656;2022-07-06T01:14:43;691.80;1356.80
55719;DHT22;41623;46.104;19.656;2022-07-06T01:17:10;691.70;1331.20
55719;DHT22;41623;46.104;19.656;2022-07-06T01:19:36;691.70;1356.80
55719;DHT22;41623;46.104;19.656;2022-07-06T01:22:02;691.70;1356.80
55719;DHT22;41623;46.104;19.656;2022-07-06T01:24:28;691.70;1331.20
55719;DHT22;41623;46.104;19.656;2022-07-06T01:26:53;691.70;1331.20
55719;DHT22;41623;46.104;19.656;2022-07-06T01:29:19;691.70;1331.20
55719;DHT22;41623;46.104;19.656;2022-07-06T01:31:50;691.80;1356.80
55719;DHT22;41623;46.104;19.656;2022-07-06T01:34:19;691.80;1331.20
55719;DHT22;41623;46.104;19.656;2022-07-06T01:36:45;691.70;1331.20
55719;DHT22;41623;46.104;19.656;2022-07-06T01:39:11;691.70;1331.20
55719;DHT22;41623;46.104;19.656;2022-07-06T01:41:37;691.60;1356.80
55719;DHT22;41623;46.104;19.656;2022-07-06T01:44:04;691.60;1331.20
55719;DHT22;41623;46.104;19.656;2022-07-06T01:46:30;691.60;1331.20
55719;DHT22;41623;46.104;19.656;2022-07-06T01:48:56;691.60;1331.20
55719;DHT22;41623;46.104;19.656;2022-07-06T01:51:21;691.50;1356.80
55719;DHT22;41623;46.104;19.656;2022-07-06T01:53:48;691.60;1331.20
55719;DHT22;41623;46.104;19.656;2022-07-06T01:56:14;691.50;1356.80
55719;DHT22;41623;46.104;19.656;2022-07-06T01:58:40;691.50;1356.80
55719;DHT22;41623;46.104;19.656;2022-07-06T02:01:08;691.60;1356.80
55719;DHT22;41623;46.104;19.656;2022-07-06T02:03:34;691.60;1356.80
55719;DHT22;41623;46.104;19.656;2022-07-06T02:06:00;691.70;1356.80
55719;DHT22;41623;46.104;19.656;2022-07-06T02:08:26;691.70;1331.20
55719;DHT22;41623;46.104;19.656;2022-07-06T02:10:51;691.70;1331.20
55719;DHT22;41623;46.104;19.656;2022-07-06T02:13:17;691.80;1331.20
55719;DHT22;41623;46.104;19.656;2022-07-06T02:15:43;691.70;1331.20
55719;DHT22;41623;46.104;19.656;2022-07-06T02:18:08;691.70;1331.20
55719;DHT22;41623;46.104;19.656;2022-07-06T02:20:34;691.60;1356.80
55719;DHT22;41623;46.104;19.656;2022-07-06T02:23:00;691.60;1331.20
55719;DHT22;41623;46.104;19.656;2022-07-06T02:25:26;691.50;1356.80
55719;DHT22;41623;46.104;19.656;2022-07-06T02:27:51;691.40;1356.80
55719;DHT22;41623;46.104;19.656;2022-07-06T02:30:17;691.30;1382.40
55719;DHT22;41623;46.104;19.656;2022-07-06T02:32:43;691.20;1356.80
55719;DHT22;41623;46.104;19.656;2022-07-06T02:35:09;691.20;1356.80
55719;DHT22;41623;46.104;19.656;2022-07-06T02:40:00;691.30;1356.80
55719;DHT22;41623;46.104;19.656;2022-07-06T02:42:27;691.20;1382.40
55719;DHT22;41623;46.104;19.656;2022-07-06T02:44:55;691.20;1356.80
55719;DHT22;41623;46.104;19.656;2022-07-06T02:52:13;691.20;1331.20
55719;DHT22;41623;46.104;19.656;2022-07-06T02:54:39;691.20;1356.80
55719;DHT22;41623;46.104;19.656;2022-07-06T02:57:05;666.40;1382.40
55719;DHT22;41623;46.104;19.656;2022-07-06T02:59:31;666.40;1356.80
55719;DHT22;41623;46.104;19.656;2022-07-06T03:01:56;666.30;1382.40
55719;DHT22;41623;46.104;19.656;2022-07-06T04:44:39;640.40;1408.00
55719;DHT22;41623;46.104;19.656;2022-07-06T04:47:05;640.00;1408.00
55719;DHT22;41623;46.104;19.656;2022-07-06T04:49:31;615.30;1433.60
55719;DHT22;41623;46.104;19.656;2022-07-06T04:51:56;640.10;1433.60
55719;DHT22;41623;46.104;19.656;2022-07-06T04:54:22;640.00;1433.60
55719;DHT22;41623;46.104;19.656;2022-07-06T04:56:48;640.10;1408.00
55719;DHT22;41623;46.104;19.656;2022-07-06T04:59:14;615.30;1408.00
55719;DHT22;41623;46.104;19.656;2022-07-06T05:01:40;640.00;1408.00
55719;DHT22;41623;46.104;19.656;2022-07-06T05:06:32;615.10;1433.60
55719;DHT22;41623;46.104;19.656;2022-07-06T05:08:58;614.90;1433.60
55719;DHT22;41623;46.104;19.656;2022-07-06T05:11:27;615.10;1433.60
55719;DHT22;41623;46.104;19.656;2022-07-06T05:13:53;615.00;1433.60
55719;DHT22;41623;46.104;19.656;2022-07-06T05:16:20;614.80;1459.20
55719;DHT22;41623;46.104;19.656;2022-07-06T05:18:46;614.90;1459.20
55719;DHT22;41623;46.104;19.656;2022-07-06T05:21:12;614.90;1433.60
55719;DHT22;41623;46.104;19.656;2022-07-06T05:23:38;614.80;1459.20
55719;DHT22;41623;46.104;19.656;2022-07-06T05:26:03;614.90;1433.60
55719;DHT22;41623;46.104;19.656;2022-07-06T05:28:29;614.90;1433.60
55719;DHT22;41623;46.104;19.656;2022-07-06T05:30:55;615.10;1408.00
55719;DHT22;41623;46.104;19.656;2022-07-06T05:33:20;615.00;1433.60
55719;DHT22;41623;46.104;19.656;2022-07-06T05:35:46;614.90;1433.60
55719;DHT22;41623;46.104;19.656;2022-07-06T05:38:12;615.00;1433.60
55719;DHT22;41623;46.104;19.656;2022-07-06T05:40:38;614.90;1433.60
55719;DHT22;41623;46.104;19.656;2022-07-06T05:43:03;614.90;1433.60
55719;DHT22;41623;46.104;19.656;2022-07-06T05:45:29;615.00;1433.60
55719;DHT22;41623;46.104;19.656;2022-07-06T05:47:55;614.90;1433.60
55719;DHT22;41623;46.104;19.656;2022-07-06T05:50:39;614.90;1433.60
55719;DHT22;41623;46.104;19.656;2022-07-06T05:53:06;614.80;1433.60
55719;DHT22;41623;46.104;19.656;2022-07-06T05:55:32;615.00;1433.60
55719;DHT22;41623;46.104;19.656;2022-07-06T05:57:58;615.00;1433.60
55719;DHT22;41623;46.104;19.656;2022-07-06T06:00:25;615.10;1433.60
55719;DHT22;41623;46.104;19.656;2022-07-06T06:02:51;615.10;1433.60
55719;DHT22;41623;46.104;19.656;2022-07-06T06:05:17;615.20;1408.00
55719;DHT22;41623;46.104;19.656;2022-07-06T06:07:44;615.10;1408.00
55719;DHT22;41623;46.104;19.656;2022-07-06T06:10:13;615.10;1433.60
55719;DHT22;41623;46.104;19.656;2022-07-06T06:12:39;615.00;1433.60
55719;DHT22;41623;46.104;19.656;2022-07-06T06:15:06;615.10;1433.60
55719;DHT22;41623;46.104;19.656;2022-07-06T06:17:33;615.20;1408.00
55719;DHT22;41623;46.104;19.656;2022-07-06T06:19:59;615.30;1408.00
55719;DHT22;41623;46.104;19.656;2022-07-06T06:22:25;615.30;1408.00
55719;DHT22;41623;46.104;19.656;2022-07-06T06:24:51;615.30;1408.00
55719;DHT22;41623;46.104;19.656;2022-07-06T06:27:17;615.30;1408.00
55719;DHT22;41623;46.104;19.656;2022-07-06T06:29:42;615.20;1408.00
55719;DHT22;41623;46.104;19.656;2022-07-06T06:32:10;615.30;1408.00
55719;DHT22;41623;46.104;19.656;2022-07-06T06:34:37;640.00;1408.00
55719;DHT22;41623;46.104;19.656;2022-07-06T06:37:03;640.00;1382.40
55719;DHT22;41623;46.104;19.656;2022-07-06T06:39:29;640.10;1382.40
55719;DHT22;41623;46.104;19.656;2022-07-06T06:41:55;640.00;1408.00
55719;DHT22;41623;46.104;19.656;2022-07-06T06:44:21;640.10;1408.00
55719;DHT22;41623;46.104;19.656;2022-07-06T06:46:49;640.20;1382.40
55719;DHT22;41623;46.104;19.656;2022-07-06T06:49:15;640.40;1408.00
55719;DHT22;41623;46.104;19.656;2022-07-06T06:51:41;640.30;1408.00
55719;DHT22;41623;46.104;19.656;2022-07-06T06:54:07;640.40;1382.40
55719;DHT22;41623;46.104;19.656;2022-07-06T06:56:32;640.40;1382.40
55719;DHT22;41623;46.104;19.656;2022-07-06T06:58:58;640.40;1382.40
55719;DHT22;41623;46.104;19.656;2022-07-06T07:01:24;640.40;1382.40
55719;DHT22;41623;46.104;19.656;2022-07-06T07:03:50;640.40;1382.40
55719;DHT22;41623;46.104;19.656;2022-07-06T07:06:16;640.50;1382.40
55719;DHT22;41623;46.104;19.656;2022-07-06T07:08:42;640.50;1382.40
55719;DHT22;41623;46.104;19.656;2022-07-06T07:11:08;640.50;1382.40
55719;DHT22;41623;46.104;19.656;2022-07-06T07:13:33;640.50;1382.40
55719;DHT22;41623;46.104;19.656;2022-07-06T07:15:59;640.50;1382.40
55719;DHT22;41623;46.104;19.656;2022-07-06T07:18:25;640.50;1382.40
55719;DHT22;41623;46.104;19.656;2022-07-06T07:20:50;640.50;1382.40
55719;DHT22;41623;46.104;19.656;2022-07-06T07:23:16;640.50;1382.40
55719;DHT22;41623;46.104;19.656;2022-07-06T07:25:42;640.50;1408.00
55719;DHT22;41623;46.104;19.656;2022-07-06T07:28:08;640.70;1408.00
55719;DHT22;41623;46.104;19.656;2022-07-06T07:33:00;665.60;1433.60
55719;DHT22;41623;46.104;19.656;2022-07-06T07:35:27;640.70;1408.00
55719;DHT22;41623;46.104;19.656;2022-07-06T07:37:53;640.70;1408.00
55719;DHT22;41623;46.104;19.656;2022-07-06T07:40:19;640.70;1408.00
55719;DHT22;41623;46.104;19.656;2022-07-06T07:42:45;640.90;1408.00
55719;DHT22;41623;46.104;19.656;2022-07-06T07:45:11;665.60;1587.20
55719;DHT22;41623;46.104;19.656;2022-07-06T07:47:38;640.90;1408.00
55719;DHT22;41623;46.104;19.656;2022-07-06T07:50:04;665.60;1433.60
55719;DHT22;41623;46.104;19.656;2022-07-06T08:09:33;666.30;1382.40
55719;DHT22;41623;46.104;19.656;2022-07-06T08:11:59;665.90;1408.00
55719;DHT22;41623;46.104;19.656;2022-07-06T08:14:25;665.80;1408.00
55719;DHT22;41623;46.104;19.656;2022-07-06T08:16:51;665.70;1408.00
55719;DHT22;41623;46.104;19.656;2022-07-06T08:19:17;665.70;1408.00
55719;DHT22;41623;46.104;19.656;2022-07-06T08:21:43;665.70;1433.60
55719;DHT22;41623;46.104;19.656;2022-07-06T08:24:09;665.70;1433.60
55719;DHT22;41623;46.104;19.656;2022-07-06T08:26:35;665.70;1408.00
55719;DHT22;41623;46.104;19.656;2022-07-06T08:29:01;665.70;1408.00
55719;DHT22;41623;46.104;19.656;2022-07-06T08:31:27;665.70;1408.00
55719;DHT22;41623;46.104;19.656;2022-07-06T08:33:53;665.70;1408.00
55719;DHT22;41623;46.104;19.656;2022-07-06T08:36:22;665.70;1408.00
55719;DHT22;41623;46.104;19.656;2022-07-06T08:38:49;665.70;1408.00
55719;DHT22;41623;46.104;19.656;2022-07-06T08:41:16;665.70;1408.00
55719;DHT22;41623;46.104;19.656;2022-07-06T08:43:43;665.70;1408.00
55719;DHT22;41623;46.104;19.656;2022-07-06T08:46:09;665.80;1408.00
55719;DHT22;41623;46.104;19.656;2022-07-06T08:48:39;665.80;1408.00
55719;DHT22;41623;46.104;19.656;2022-07-06T08:51:06;666.00;1408.00
55719;DHT22;41623;46.104;19.656;2022-07-06T08:53:32;666.00;1408.00
55719;DHT22;41623;46.104;19.656;2022-07-06T08:55:59;666.00;1408.00
55719;DHT22;41623;46.104;19.656;2022-07-06T08:58:27;665.90;1382.40
55719;DHT22;41623;46.104;19.656;2022-07-06T09:00:57;666.00;1382.40
55719;DHT22;41623;46.104;19.656;2022-07-06T09:03:23;666.00;1382.40
55719;DHT22;41623;46.104;19.656;2022-07-06T09:05:50;666.10;1382.40
55719;DHT22;41623;46.104;19.656;2022-07-06T09:08:18;666.30;1382.40
55719;DHT22;41623;46.104;19.656;2022-07-06T10:02:20;691.60;1356.80
55719;DHT22;41623;46.104;19.656;2022-07-06T10:04:46;691.40;1356.80
55719;DHT22;41623;46.104;19.656;2022-07-06T10:07:13;691.60;1331.20
55719;DHT22;41623;46.104;19.656;2022-07-06T10:09:40;691.50;1280.00
55719;DHT22;41623;46.104;19.656;2022-07-06T10:12:09;691.40;1305.60
55719;DHT22;41623;46.104;19.656;2022-07-06T10:14:39;691.40;1331.20
55719;DHT22;41623;46.104;19.656;2022-07-06T10:17:06;691.50;1331.20
55719;DHT22;41623;46.104;19.656;2022-07-06T10:19:33;691.60;1331.20
55719;DHT22;41623;46.104;19.656;2022-07-06T10:22:00;691.70;1331.20
55719;DHT22;41623;46.104;19.656;2022-07-06T10:24:27;691.80;1254.40
55719;DHT22;41623;46.104;19.656;2022-07-06T10:26:55;691.90;1254.40
55719;DHT22;41623;46.104;19.656;2022-07-06T10:29:21;692.00;1254.40
55719;DHT22;41623;46.104;19.656;2022-07-06T10:31:48;692.10;1254.40
55719;DHT22;41623;46.104;19.656;2022-07-06T10:34:15;692.10;1228.80
55719;DHT22;41623;46.104;19.656;2022-07-06T10:36:44;692.10;1254.40
55719;DHT22;41623;46.104;19.656;2022-07-06T10:39:11;692.00;1254.40
55719;DHT22;41623;46.104;19.656;2022-07-06T10:41:55;692.10;1228.80
55719;DHT22;41623;46.104;19.656;2022-07-06T10:44:26;692.00;1254.40
55719;DHT22;41623;46.104;19.656;2022-07-06T10:46:53;692.10;1228.80
55719;DHT22;41623;46.104;19.656;2022-07-06T10:49:20;716.80;1254.40
55719;DHT22;41623;46.104;19.656;2022-07-06T10:51:47;692.10;1254.40
55719;DHT22;41623;46.104;19.656;2022-07-06T10:54:12;716.80;1254.40
55719;DHT22;41623;46.104;19.656;2022-07-06T10:56:43;716.80;1228.80
55719;DHT22;41623;46.104;19.656;2022-07-06T10:59:21;716.80;1228.80
55719;DHT22;41623;46.104;19.656;2022-07-06T11:04:39;692.10;1228.80
55719;DHT22;41623;46.104;19.656;2022-07-06T11:07:15;692.10;1228.80
55719;DHT22;41623;46.104;19.656;2022-07-06T11:09:45;692.10;1203.20
55719;DHT22;41623;46.104;19.656;2022-07-06T11:12:19;692.10;1177.60
55719;DHT22;41623;46.104;19.656;2022-07-06T11:14:46;692.10;1177.60
55719;DHT22;41623;46.104;19.656;2022-07-06T11:17:13;692.10;1177.60
55719;DHT22;41623;46.104;19.656;2022-07-06T11:19:50;692.10;1177.60
55719;DHT22;41623;46.104;19.656;2022-07-06T11:22:17;692.00;1177.60
55719;DHT22;41623;46.104;19.656;2022-07-06T11:24:44;692.10;1203.20
55719;DHT22;41623;46.104;19.656;2022-07-06T11:27:10;692.10;1203.20
55719;DHT22;41623;46.104;19.656;2022-07-06T11:29:36;692.10;1203.20
55719;DHT22;41623;46.104;19.656;2022-07-06T11:32:05;692.00;1228.80
55719;DHT22;41623;46.104;19.656;2022-07-06T11:34:36;691.90;1228.80
55719;DHT22;41623;46.104;19.656;2022-07-06T11:37:09;691.80;1228.80
55719;DHT22;41623;46.104;19.656;2022-07-06T11:39:37;691.80;1228.80
55719;DHT22;41623;46.104;19.656;2022-07-06T11:42:06;691.80;1254.40
55719;DHT22;41623;46.104;19.656;2022-07-06T11:44:33;691.90;1254.40
55719;DHT22;41623;46.104;19.656;2022-07-06T11:47:00;691.90;1254.40
55719;DHT22;41623;46.104;19.656;2022-07-06T11:49:28;691.90;1228.80
55719;DHT22;41623;46.104;19.656;2022-07-06T11:51:54;691.90;1254.40
55719;DHT22;41623;46.104;19.656;2022-07-06T11:54:21;691.90;1254.40
55719;DHT22;41623;46.104;19.656;2022-07-06T11:56:58;691.90;1254.40
55719;DHT22;41623;46.104;19.656;2022-07-06T12:01:58;692.00;1228.80
55719;DHT22;41623;46.104;19.656;2022-07-06T12:04:24;692.00;1228.80
55719;DHT22;41623;46.104;19.656;2022-07-06T12:06:50;692.10;1228.80
55719;DHT22;41623;46.104;19.656;2022-07-06T12:09:16;692.10;1228.80
55719;DHT22;41623;46.104;19.656;2022-07-06T12:11:44;692.10;1228.80
55719;DHT22;41623;46.104;19.656;2022-07-06T12:14:18;692.10;1228.80
55719;DHT22;41623;46.104;19.656;2022-07-06T12:16:44;692.10;1228.80
55719;DHT22;41623;46.104;19.656;2022-07-06T12:19:10;692.00;1203.20
55719;DHT22;41623;46.104;19.656;2022-07-06T12:21:46;692.10;1228.80
55719;DHT22;41623;46.104;19.656;2022-07-06T12:24:20;692.00;1228.80
55719;DHT22;41623;46.104;19.656;2022-07-06T12:26:46;692.00;1228.80
55719;DHT22;41623;46.104;19.656;2022-07-06T12:29:13;692.10;1228.80
55719;DHT22;41623;46.104;19.656;2022-07-06T12:31:42;692.00;1228.80
55719;DHT22;41623;46.104;19.656;2022-07-06T12:34:24;692.10;1203.20
55719;DHT22;41623;46.104;19.656;2022-07-06T12:36:55;692.10;1177.60
55719;DHT22;41623;46.104;19.656;2022-07-06T12:39:28;692.10;1177.60
55719;DHT22;41623;46.104;19.656;2022-07-06T12:41:56;692.10;1177.60
55719;DHT22;41623;46.104;19.656;2022-07-06T12:44:25;692.00;1203.20
55719;DHT22;41623;46.104;19.656;2022-07-06T12:47:08;692.00;1203.20
55719;DHT22;41623;46.104;19.656;2022-07-06T12:49:36;692.00;1228.80
55719;DHT22;41623;46.104;19.656;2022-07-06T12:52:14;692.10;1177.60
55719;DHT22;41623;46.104;19.656;2022-07-06T12:54:49;692.10;1177.60
55719;DHT22;41623;46.104;19.656;2022-07-06T12:57:19;692.10;1177.60
55719;DHT22;41623;46.104;19.656;2022-07-06T12:59:55;692.10;1203.20
55719;DHT22;41623;46.104;19.656;2022-07-06T13:02:25;692.10;1177.60
55719;DHT22;41623;46.104;19.656;2022-07-06T13:07:32;692.10;1177.60
55719;DHT22;41623;46.104;19.656;2022-07-06T13:10:01;692.10;1152.00
55719;DHT22;41623;46.104;19.656;2022-07-06T13:12:28;692.10;1177.60
55719;DHT22;41623;46.104;19.656;2022-07-06T13:14:54;692.10;1152.00
55719;DHT22;41623;46.104;19.656;2022-07-06T13:17:20;716.80;1177.60
55719;DHT22;41623;46.104;19.656;2022-07-06T13:19:46;716.80;1177.60
55719;DHT22;41623;46.104;19.656;2022-07-06T13:22:12;716.80;1177.60
55719;DHT22;41623;46.104;19.656;2022-07-06T13:24:38;716.80;1203.20
55719;DHT22;41623;46.104;19.656;2022-07-06T13:27:04;692.10;1177.60
55719;DHT22;41623;46.104;19.656;2022-07-06T13:29:30;692.10;1177.60
55719;DHT22;41623;46.104;19.656;2022-07-06T13:31:55;692.10;1177.60
55719;DHT22;41623;46.104;19.656;2022-07-06T13:34:21;716.80;1203.20
55719;DHT22;41623;46.104;19.656;2022-07-06T13:36:47;716.80;1203.20
55719;DHT22;41623;46.104;19.656;2022-07-06T13:39:13;716.80;1203.20
55719;DHT22;41623;46.104;19.656;2022-07-06T13:41:39;692.10;1203.20
55719;DHT22;41623;46.104;19.656;2022-07-06T13:44:04;716.80;1228.80
55719;DHT22;41623;46.104;19.656;2022-07-06T13:46:31;692.10;1203.20
55719;DHT22;41623;46.104;19.656;2022-07-06T13:48:58;716.80;1228.80
55719;DHT22;41623;46.104;19.656;2022-07-06T13:51:24;716.80;1254.40
55719;DHT22;41623;46.104;19.656;2022-07-06T13:53:52;716.80;1254.40
55719;DHT22;41623;46.104;19.656;2022-07-06T13:56:18;716.80;1254.40
55719;DHT22;41623;46.104;19.656;2022-07-06T13:58:44;716.80;1228.80
55719;DHT22;41623;46.104;19.656;2022-07-06T14:01:10;716.80;1177.60
55719;DHT22;41623;46.104;19.656;2022-07-06T14:03:36;716.80;1228.80
55719;DHT22;41623;46.104;19.656;2022-07-06T14:06:05;716.90;1228.80
55719;DHT22;41623;46.104;19.656;2022-07-06T14:08:37;716.90;1203.20
55719;DHT22;41623;46.104;19.656;2022-07-06T14:11:04;716.90;1228.80
55719;DHT22;41623;46.104;19.656;2022-07-06T14:13:30;716.90;1228.80
55719;DHT22;41623;46.104;19.656;2022-07-06T14:15:57;716.90;1254.40
55719;DHT22;41623;46.104;19.656;2022-07-06T14:18:23;716.80;1254.40
55719;DHT22;41623;46.104;19.656;2022-07-06T14:20:50;716.90;1203.20
55719;DHT22;41623;46.104;19.656;2022-07-06T14:23:16;716.90;1228.80
55719;DHT22;41623;46.104;19.656;2022-07-06T14:25:43;716.90;1152.00
55719;DHT22;41623;46.104;19.656;2022-07-06T14:28:09;716.90;1177.60
55719;DHT22;41623;46.104;19.656;2022-07-06T14:35:34;717.20;1203.20
55719;DHT22;41623;46.104;19.656;2022-07-06T14:38:00;717.00;1100.80
55719;DHT22;41623;46.104;19.656;2022-07-06T14:40:25;717.10;1024.00
55719;DHT22;41623;46.104;19.656;2022-07-06T14:42:51;717.10;1024.00
55719;DHT22;41623;46.104;19.656;2022-07-06T14:45:17;717.20;1075.20
55719;DHT22;41623;46.104;19.656;2022-07-06T14:47:42;717.10;1024.00
55719;DHT22;41623;46.104;19.656;2022-07-06T14:50:08;717.10;1024.00
55719;DHT22;41623;46.104;19.656;2022-07-06T14:52:34;717.10;1075.20
55719;DHT22;41623;46.104;19.656;2022-07-06T14:54:59;717.10;1100.80
55719;DHT22;41623;46.104;19.656;2022-07-06T14:57:25;717.20;998.40
55719;DHT22;41623;46.104;19.656;2022-07-06T14:59:51;717.10;972.80
55719;DHT22;41623;46.104;19.656;2022-07-06T15:02:17;717.20;1049.60
55719;DHT22;41623;46.104;19.656;2022-07-06T15:04:43;717.30;998.40
55719;DHT22;41623;46.104;19.656;2022-07-06T15:07:09;717.40;870.40
55719;DHT22;41623;46.104;19.656;2022-07-06T15:09:35;717.50;844.80
55719;DHT22;41623;46.104;19.656;2022-07-06T15:12:00;717.50;844.80
55719;DHT22;41623;46.104;19.656;2022-07-06T15:14:28;717.50;844.80
55719;DHT22;41623;46.104;19.656;2022-07-06T15:16:54;717.50;844.80
55719;DHT22;41623;46.104;19.656;2022-07-06T18:56:24;691.90;896.00
55719;DHT22;41623;46.104;19.656;2022-07-06T18:58:50;691.60;921.60
55719;DHT22;41623;46.104;19.656;2022-07-06T19:28:15;691.70;896.00
55719;DHT22;41623;46.104;19.656;2022-07-06T19:30:41;691.30;921.60
55719;DHT22;41623;46.104;19.656;2022-07-06T19:33:07;691.30;921.60
55719;DHT22;41623;46.104;19.656;2022-07-06T19:35:33;691.30;896.00
55719;DHT22;41623;46.104;19.656;2022-07-06T19:38:00;691.40;896.00
55719;DHT22;41623;46.104;19.656;2022-07-06T19:40:26;691.30;921.60
55719;DHT22;41623;46.104;19.656;2022-07-06T19:42:52;691.20;921.60
55719;DHT22;41623;46.104;19.656;2022-07-06T19:45:19;691.20;921.60
55719;DHT22;41623;46.104;19.656;2022-07-06T19:47:45;691.20;921.60
55719;DHT22;41623;46.104;19.656;2022-07-06T19:50:10;691.30;921.60
55719;DHT22;41623;46.104;19.656;2022-07-06T19:52:36;691.20;921.60
55719;DHT22;41623;46.104;19.656;2022-07-06T19:55:02;691.20;921.60
55719;DHT22;41623;46.104;19.656;2022-07-06T19:57:28;691.30;921.60
55719;DHT22;41623;46.104;19.656;2022-07-06T19:59:55;691.30;921.60
55719;DHT22;41623;46.104;19.656;2022-07-06T20:02:21;691.30;947.20
55719;DHT22;41623;46.104;19.656;2022-07-06T20:04:47;691.30;947.20
55719;DHT22;41623;46.104;19.656;2022-07-06T20:07:14;691.30;947.20
55719;DHT22;41623;46.104;19.656;2022-07-06T20:09:40;691.30;972.80
55719;DHT22;41623;46.104;19.656;2022-07-06T20:12:06;691.30;947.20
55719;DHT22;41623;46.104;19.656;2022-07-06T20:14:32;691.30;947.20
55719;DHT22;41623;46.104;19.656;2022-07-06T20:16:58;691.30;1049.60
55719;DHT22;41623;46.104;19.656;2022-07-06T20:19:23;691.20;921.60
55719;DHT22;41623;46.104;19.656;2022-07-06T20:21:49;666.40;947.20
55719;DHT22;41623;46.104;19.656;2022-07-06T20:24:15;666.40;972.80
55719;DHT22;41623;46.104;19.656;2022-07-06T20:26:41;666.30;972.80
55719;DHT22;41623;46.104;19.656;2022-07-06T20:29:08;666.20;947.20
55719;DHT22;41623;46.104;19.656;2022-07-06T20:38:53;666.50;1024.00
55719;DHT22;41623;46.104;19.656;2022-07-06T20:41:18;666.40;998.40
55719;DHT22;41623;46.104;19.656;2022-07-06T20:43:44;666.10;998.40
55719;DHT22;41623;46.104;19.656;2022-07-06T21:42:12;666.40;1049.60
55719;DHT22;41623;46.104;19.656;2022-07-06T21:44:38;666.10;1049.60
55719;DHT22;41623;46.104;19.656;2022-07-06T21:47:04;666.00;1075.20
55719;DHT22;41623;46.104;19.656;2022-07-06T22:51:08;640.40;1152.00
55719;DHT22;41623;46.104;19.656;2022-07-06T22:53:34;640.20;1228.80
55719;DHT22;41623;46.104;19.656;2022-07-06T22:56:00;640.10;1126.40
55719;DHT22;41623;46.104;19.656;2022-07-06T22:58:26;615.30;1100.80
55719;DHT22;41623;46.104;19.656;2022-07-06T23:00:52;615.30;1126.40
55719;DHT22;41623;46.104;19.656;2022-07-06T23:03:18;615.30;1152.00
55719;DHT22;41623;46.104;19.656;2022-07-06T23:05:48;640.10;1280.00
55719;DHT22;41623;46.104;19.656;2022-07-06T23:08:15;640.00;1126.40
55719;DHT22;41623;46.104;19.656;2022-07-06T23:10:41;615.30;1100.80
55719;DHT22;41623;46.104;19.656;2022-07-06T23:13:08;615.20;1126.40
55719;DHT22;41623;46.104;19.656;2022-07-06T23:15:33;615.10;1152.00
55719;DHT22;41623;46.104;19.656;2022-07-06T23:18:01;615.10;1126.40
55719;DHT22;41623;46.104;19.656;2022-07-06T23:20:27;615.10;1152.00
55719;DHT22;41623;46.104;19.656;2022-07-06T23:22:53;615.00;1126.40
55719;DHT22;41623;46.104;19.656;2022-07-06T23:25:19;615.10;1126.40
55719;DHT22;41623;46.104;19.656;2022-07-06T23:27:45;614.90;1152.00
55719;DHT22;41623;46.104;19.656;2022-07-06T23:30:11;614.80;1177.60
55719;DHT22;41623;46.104;19.656;2022-07-06T23:32:37;614.90;1152.00
55719;DHT22;41623;46.104;19.656;2022-07-06T23:35:03;614.80;1126.40
55719;DHT22;41623;46.104;19.656;2022-07-06T23:37:29;614.70;1152.00
55719;DHT22;41623;46.104;19.656;2022-07-06T23:39:55;614.70;1152.00
55719;DHT22;41623;46.104;19.656;2022-07-06T23:42:21;614.60;1152.00
55719;DHT22;41623;46.104;19.656;2022-07-06T23:44:46;614.60;1152.00
55719;DHT22;41623;46.104;19.656;2022-07-06T23:47:12;614.60;1152.00
55719;DHT22;41623;46.104;19.656;2022-07-06T23:52:04;615.00;1152.00
55719;DHT22;41623;46.104;19.656;2022-07-06T23:54:30;615.00;1126.40
55719;DHT22;41623;46.104;19.656;2022-07-06T23:56:56;614.80;1126.40
55719;DHT22;41623;46.104;19.656;2022-07-06T23:59:22;614.80;1152.00
